Time;durP1;ratioP1;P1;durP2;ratioP2;P2;SDS_P1;SDS_P2;PMS_P1;PMS_P2;Temp;Humidity;BMP_temperature;BMP_pressure;BME280_temperature;BME280_humidity;BME280_pressure;Samples;Min_cycle;Max_cycle;Signal;HPM_P1;HPM_P2
2022/03/01 00:00:50;;;;;;;17.58;10.82;;;;;;;;;;4992869;28;21447;-75
2022/03/01 00:03:16;;;;;;;14.70;11.35;;;;;;;;;;4994749;28;20034;-75
2022/03/01 00:05:43;;;;;;;16.30;11.25;;;;;;;;;;4979499;28;20038;-75
2022/03/01 00:08:09;;;;;;;14.95;10.75;;;;;;;;;;4992796;28;20038;-75
2022/03/01 00:10:35;;;;;;;15.75;10.43;;;;;;;;;;4981168;28;20488;-75
2022/03/01 00:13:01;;;;;;;15.80;10.95;;;;;;;;;;4993132;28;20132;-75
2022/03/01 00:15:27;;;;;;;14.90;10.23;;;;;;;;;;4970070;28;20069;-75
2022/03/01 00:17:53;;;;;;;14.52;10.65;;;;;;;;;;4989010;28;20037;-75
2022/03/01 00:20:19;;;;;;;15.18;10.63;;;;;;;;;;4990038;28;20056;-74
2022/03/01 00:22:45;;;;;;;15.43;11.30;;;;;;;;;;4990977;28;20124;-75
2022/03/01 00:25:11;;;;;;;13.57;10.27;;;;;;;;;;4990147;28;20377;-75
2022/03/01 00:27:37;;;;;;;13.63;9.95;;;;;;;;;;4980740;28;20034;-75
2022/03/01 00:30:03;;;;;;;12.85;10.10;;;;;;;;;;4996800;28;20416;-75
2022/03/01 00:32:29;;;;;;;15.25;10.75;;;;;;;;;;4977517;28;20034;-75
2022/03/01 00:34:55;;;;;;;14.80;10.55;;;;;;;;;;4983606;28;20479;-75
2022/03/01 00:37:21;;;;;;;15.43;9.70;;;;;;;;;;4993334;28;20176;-75
2022/03/01 00:39:47;;;;;;;15.85;9.80;;;;;;;;;;4990319;28;20046;-75
2022/03/01 00:42:13;;;;;;;12.32;9.57;;;;;;;;;;4991592;28;20096;-75
2022/03/01 00:44:39;;;;;;;13.90;10.25;;;;;;;;;;4993410;28;20042;-75
2022/03/01 00:47:05;;;;;;;16.25;11.15;;;;;;;;;;4994014;28;20041;-75
2022/03/01 00:49:31;;;;;;;17.02;10.98;;;;;;;;;;4993153;28;20037;-75
2022/03/01 00:51:57;;;;;;;14.70;10.55;;;;;;;;;;4995053;28;20046;-75
2022/03/01 00:54:23;;;;;;;14.73;10.48;;;;;;;;;;4975676;28;20034;-75
2022/03/01 00:56:49;;;;;;;13.55;10.88;;;;;;;;;;4987491;28;20104;-75
2022/03/01 00:59:15;;;;;;;16.33;10.80;;;;;;;;;;5006542;28;20528;-75
2022/03/01 01:01:41;;;;;;;14.95;10.02;;;;;;;;;;4993651;28;20484;-75
2022/03/01 01:04:07;;;;;;;15.90;10.55;;;;;;;;;;4987744;28;20053;-75
2022/03/01 01:06:33;;;;;;;14.82;10.90;;;;;;;;;;5002288;28;20419;-75
2022/03/01 01:09:00;;;;;;;15.68;11.02;;;;;;;;;;4977944;28;20416;-75
2022/03/01 01:11:25;;;;;;;15.77;11.43;;;;;;;;;;4985078;28;20037;-75
2022/03/01 01:13:52;;;;;;;12.48;9.70;;;;;;;;;;4994013;28;20045;-75
2022/03/01 01:16:17;;;;;;;13.73;10.88;;;;;;;;;;4987055;28;20037;-75
2022/03/01 01:18:44;;;;;;;15.45;10.95;;;;;;;;;;4992610;28;20076;-75
2022/03/01 01:21:13;;;;;;;14.07;9.77;;;;;;;;;;4969250;28;20510;-75
2022/03/01 01:23:39;;;;;;;13.73;9.85;;;;;;;;;;4975643;28;20069;-75
2022/03/01 01:26:05;;;;;;;15.25;11.10;;;;;;;;;;4990488;28;20073;-74
2022/03/01 01:28:31;;;;;;;14.90;10.38;;;;;;;;;;4990732;28;20488;-74
2022/03/01 01:30:57;;;;;;;16.73;10.70;;;;;;;;;;4985589;28;20046;-74
2022/03/01 01:33:23;;;;;;;15.93;10.20;;;;;;;;;;4981172;28;20073;-74
2022/03/01 01:35:49;;;;;;;14.50;10.57;;;;;;;;;;4995217;28;20030;-75
2022/03/01 01:38:15;;;;;;;16.13;10.32;;;;;;;;;;4997261;28;20488;-74
2022/03/01 01:40:42;;;;;;;12.98;10.27;;;;;;;;;;4997194;28;20495;-74
2022/03/01 01:43:08;;;;;;;17.50;11.13;;;;;;;;;;4992931;28;20041;-74
2022/03/01 01:45:34;;;;;;;14.63;10.27;;;;;;;;;;4991534;28;20070;-74
2022/03/01 01:48:01;;;;;;;14.88;10.43;;;;;;;;;;4995174;28;20044;-74
2022/03/01 01:50:28;;;;;;;15.35;10.30;;;;;;;;;;4995461;28;20034;-74
2022/03/01 01:52:55;;;;;;;13.80;10.02;;;;;;;;;;4980253;28;20053;-74
2022/03/01 01:55:22;;;;;;;15.32;10.07;;;;;;;;;;4980133;28;20132;-74
2022/03/01 01:57:48;;;;;;;13.32;10.05;;;;;;;;;;4989391;28;20129;-74
2022/03/01 02:00:15;;;;;;;14.65;10.90;;;;;;;;;;4997048;28;20068;-74
2022/03/01 02:02:41;;;;;;;15.48;10.70;;;;;;;;;;4974732;28;20045;-74
2022/03/01 02:05:08;;;;;;;13.68;10.50;;;;;;;;;;4996723;28;20404;-74
2022/03/01 02:07:34;;;;;;;13.65;10.63;;;;;;;;;;4995852;28;20369;-74
2022/03/01 02:10:01;;;;;;;13.80;10.63;;;;;;;;;;4993758;28;20045;-74
2022/03/01 02:12:27;;;;;;;16.83;10.95;;;;;;;;;;4988645;28;20583;-74
2022/03/01 02:14:53;;;;;;;15.63;11.45;;;;;;;;;;4976825;28;20037;-74
2022/03/01 02:17:19;;;;;;;16.33;9.95;;;;;;;;;;4979583;28;20042;-74
2022/03/01 02:19:49;;;;;;;14.32;10.40;;;;;;;;;;4996531;28;20539;-74
2022/03/01 02:22:15;;;;;;;18.10;11.52;;;;;;;;;;4986337;28;20041;-74
2022/03/01 02:24:41;;;;;;;16.02;11.80;;;;;;;;;;5002376;28;20401;-74
2022/03/01 02:27:07;;;;;;;16.58;11.70;;;;;;;;;;4992517;28;20072;-73
2022/03/01 02:29:33;;;;;;;15.07;11.25;;;;;;;;;;4959549;28;20044;-74
2022/03/01 02:32:07;;;;;;;14.30;11.05;;;;;;;;;;4996852;28;20427;-75
2022/03/01 02:34:34;;;;;;;17.02;11.90;;;;;;;;;;4991811;28;20473;-74
2022/03/01 02:37:00;;;;;;;15.93;12.15;;;;;;;;;;4995548;28;20104;-74
2022/03/01 02:39:26;;;;;;;16.13;11.45;;;;;;;;;;4991024;28;20044;-74
2022/03/01 02:41:52;;;;;;;18.02;11.63;;;;;;;;;;4998108;28;20492;-74
2022/03/01 02:44:18;;;;;;;16.13;11.70;;;;;;;;;;4994254;28;20042;-74
2022/03/01 02:46:44;;;;;;;17.35;11.98;;;;;;;;;;4989144;28;20081;-74
2022/03/01 02:49:10;;;;;;;16.52;12.05;;;;;;;;;;4993686;28;20087;-74
2022/03/01 02:51:37;;;;;;;19.30;11.43;;;;;;;;;;4989343;28;20038;-74
2022/03/01 02:54:04;;;;;;;15.80;11.35;;;;;;;;;;4997565;28;20070;-74
2022/03/01 02:56:30;;;;;;;18.65;11.85;;;;;;;;;;4996657;28;20034;-74
2022/03/01 02:58:58;;;;;;;15.52;11.45;;;;;;;;;;4994075;28;20042;-75
2022/03/01 03:01:25;;;;;;;16.20;10.90;;;;;;;;;;4990979;28;20034;-74
2022/03/01 03:03:51;;;;;;;17.27;11.90;;;;;;;;;;4979026;28;20057;-75
2022/03/01 03:06:17;;;;;;;17.65;11.75;;;;;;;;;;4977718;28;20049;-74
2022/03/01 03:08:44;;;;;;;19.83;11.77;;;;;;;;;;4994958;28;20077;-74
2022/03/01 03:11:10;;;;;;;16.52;12.30;;;;;;;;;;4975767;28;20066;-74
2022/03/01 03:13:36;;;;;;;14.70;11.60;;;;;;;;;;5000358;28;20030;-74
2022/03/01 03:16:05;;;;;;;16.73;11.80;;;;;;;;;;4993244;28;20099;-74
2022/03/01 03:18:31;;;;;;;17.35;11.45;;;;;;;;;;4992225;28;20099;-75
2022/03/01 03:20:58;;;;;;;15.43;12.05;;;;;;;;;;4978633;28;20044;-74
2022/03/01 03:23:24;;;;;;;18.83;12.10;;;;;;;;;;4993031;28;20084;-74
2022/03/01 03:25:50;;;;;;;16.38;12.05;;;;;;;;;;4992519;28;20042;-74
2022/03/01 03:28:16;;;;;;;17.88;12.43;;;;;;;;;;4989798;28;20034;-74
2022/03/01 03:30:42;;;;;;;19.48;12.35;;;;;;;;;;4989119;28;20073;-74
2022/03/01 03:33:08;;;;;;;16.77;11.93;;;;;;;;;;4999551;28;20049;-74
2022/03/01 03:35:34;;;;;;;15.98;12.57;;;;;;;;;;4979619;28;20033;-73
2022/03/01 03:38:00;;;;;;;17.42;12.13;;;;;;;;;;4995315;28;20044;-74
2022/03/01 03:40:26;;;;;;;17.20;11.73;;;;;;;;;;4993699;28;20408;-74
2022/03/01 03:42:52;;;;;;;18.95;13.10;;;;;;;;;;4994920;28;20125;-74
2022/03/01 03:45:18;;;;;;;19.50;12.32;;;;;;;;;;4995130;28;20038;-74
2022/03/01 03:47:44;;;;;;;17.08;12.07;;;;;;;;;;4994789;28;20096;-74
2022/03/01 03:50:11;;;;;;;17.75;11.98;;;;;;;;;;4998647;28;20050;-74
2022/03/01 03:52:38;;;;;;;17.67;12.70;;;;;;;;;;4991996;28;20132;-74
2022/03/01 03:55:05;;;;;;;17.17;12.68;;;;;;;;;;4999558;28;20042;-74
2022/03/01 03:57:32;;;;;;;19.45;12.88;;;;;;;;;;4971584;28;20033;-74
2022/03/01 03:59:58;;;;;;;18.73;13.68;;;;;;;;;;4986662;28;20511;-74
2022/03/01 04:02:24;;;;;;;17.58;13.20;;;;;;;;;;5002004;28;20455;-74
2022/03/01 04:04:50;;;;;;;16.52;12.68;;;;;;;;;;4980049;28;20053;-74
2022/03/01 04:07:16;;;;;;;18.55;12.65;;;;;;;;;;4992050;28;20045;-74
2022/03/01 04:09:42;;;;;;;18.10;12.88;;;;;;;;;;4991848;28;20042;-74
2022/03/01 04:12:10;;;;;;;16.80;12.70;;;;;;;;;;4996438;28;20038;-74
2022/03/01 04:14:36;;;;;;;17.10;12.80;;;;;;;;;;4996006;28;20034;-74
2022/03/01 04:17:03;;;;;;;16.25;12.68;;;;;;;;;;4993807;28;20156;-74
2022/03/01 04:19:29;;;;;;;16.80;12.07;;;;;;;;;;4993848;28;20048;-73
2022/03/01 04:21:55;;;;;;;18.42;12.60;;;;;;;;;;4960171;28;20038;-74
2022/03/01 04:24:21;;;;;;;18.48;12.45;;;;;;;;;;4992894;28;20053;-74
2022/03/01 04:26:47;;;;;;;17.55;11.68;;;;;;;;;;4988222;28;20122;-74
2022/03/01 04:29:13;;;;;;;20.48;12.82;;;;;;;;;;4994368;28;20045;-74
2022/03/01 04:31:40;;;;;;;22.02;12.30;;;;;;;;;;4994562;28;20034;-74
2022/03/01 04:34:06;;;;;;;18.63;12.68;;;;;;;;;;4974283;28;20125;-73
2022/03/01 04:36:32;;;;;;;17.52;12.75;;;;;;;;;;4987153;28;20034;-74
2022/03/01 04:38:58;;;;;;;18.17;13.30;;;;;;;;;;4993253;28;20115;-74
2022/03/01 04:41:24;;;;;;;19.95;13.02;;;;;;;;;;4992421;28;20443;-74
2022/03/01 04:43:51;;;;;;;17.48;13.27;;;;;;;;;;4996270;28;20034;-73
2022/03/01 04:46:18;;;;;;;16.10;12.43;;;;;;;;;;4993052;28;20050;-73
2022/03/01 04:48:45;;;;;;;19.40;13.95;;;;;;;;;;4993744;28;20054;-74
2022/03/01 04:51:11;;;;;;;17.30;13.13;;;;;;;;;;4993515;28;20404;-74
2022/03/01 04:53:37;;;;;;;21.42;13.25;;;;;;;;;;4996468;28;20500;-74
2022/03/01 04:56:03;;;;;;;21.63;13.48;;;;;;;;;;4982786;28;20105;-73
2022/03/01 04:58:29;;;;;;;17.27;13.05;;;;;;;;;;4991037;28;20120;-74
2022/03/01 05:00:55;;;;;;;17.17;12.35;;;;;;;;;;4991966;28;20121;-74
2022/03/01 05:03:22;;;;;;;17.38;12.93;;;;;;;;;;4995435;28;20030;-74
2022/03/01 05:05:48;;;;;;;18.40;14.05;;;;;;;;;;4995419;28;20065;-74
2022/03/01 05:08:14;;;;;;;23.83;13.52;;;;;;;;;;4986894;28;20072;-73
2022/03/01 05:10:40;;;;;;;18.30;13.40;;;;;;;;;;4989853;28;20508;-74
2022/03/01 05:13:06;;;;;;;21.08;14.40;;;;;;;;;;4968832;28;20078;-74
2022/03/01 05:15:32;;;;;;;18.38;13.80;;;;;;;;;;4996361;28;20037;-74
2022/03/01 05:17:59;;;;;;;18.75;13.75;;;;;;;;;;4988294;28;20620;-73
2022/03/01 05:20:25;;;;;;;18.88;12.57;;;;;;;;;;4977020;28;20044;-73
2022/03/01 05:22:52;;;;;;;18.95;13.40;;;;;;;;;;4984974;28;20191;-74
2022/03/01 05:25:19;;;;;;;17.88;12.80;;;;;;;;;;4977006;28;20046;-73
2022/03/01 05:27:46;;;;;;;17.95;12.65;;;;;;;;;;4993221;28;20060;-73
2022/03/01 05:30:13;;;;;;;19.60;13.00;;;;;;;;;;4989145;28;20082;-74
2022/03/01 05:32:40;;;;;;;17.10;12.32;;;;;;;;;;4994123;28;20126;-74
2022/03/01 05:35:09;;;;;;;17.65;12.25;;;;;;;;;;4994169;28;20061;-74
2022/03/01 05:37:36;;;;;;;16.02;12.38;;;;;;;;;;4993857;28;20069;-74
2022/03/01 05:40:02;;;;;;;19.02;12.60;;;;;;;;;;4988446;28;20073;-73
2022/03/01 05:42:28;;;;;;;18.30;13.23;;;;;;;;;;4993556;28;20034;-73
2022/03/01 05:44:55;;;;;;;16.98;11.98;;;;;;;;;;4976799;28;20038;-73
2022/03/01 05:47:21;;;;;;;17.67;12.23;;;;;;;;;;4992917;28;20042;-74
2022/03/01 05:49:47;;;;;;;18.75;12.57;;;;;;;;;;4993218;28;20030;-73
2022/03/01 05:52:13;;;;;;;19.30;12.50;;;;;;;;;;4994015;28;20038;-74
2022/03/01 05:54:39;;;;;;;16.45;12.38;;;;;;;;;;4993464;28;20037;-74
2022/03/01 05:57:06;;;;;;;19.13;12.27;;;;;;;;;;4991380;28;20087;-74
2022/03/01 05:59:32;;;;;;;19.13;12.93;;;;;;;;;;4990228;28;20496;-73
2022/03/01 06:01:57;;;;;;;16.52;12.73;;;;;;;;;;4998266;28;20039;-73
2022/03/01 06:04:24;;;;;;;16.15;12.50;;;;;;;;;;4989352;28;20041;-74
2022/03/01 06:06:50;;;;;;;18.67;12.82;;;;;;;;;;4993859;28;20042;-73
2022/03/01 06:09:16;;;;;;;20.35;13.20;;;;;;;;;;4987037;28;20052;-73
2022/03/01 06:11:42;;;;;;;20.45;12.77;;;;;;;;;;4973919;28;20030;-73
2022/03/01 06:14:09;;;;;;;21.25;14.50;;;;;;;;;;4990765;28;20042;-73
2022/03/01 06:16:35;;;;;;;17.50;12.88;;;;;;;;;;4986935;28;20034;-73
2022/03/01 06:19:01;;;;;;;26.40;13.35;;;;;;;;;;4993820;28;20041;-74
2022/03/01 06:21:27;;;;;;;17.75;12.68;;;;;;;;;;4980497;28;20458;-74
2022/03/01 06:23:55;;;;;;;18.58;12.10;;;;;;;;;;5001044;28;20041;-73
2022/03/01 06:26:21;;;;;;;17.58;12.27;;;;;;;;;;4997959;28;20038;-74
2022/03/01 06:28:47;;;;;;;18.55;12.95;;;;;;;;;;4979272;28;20451;-73
2022/03/01 06:31:13;;;;;;;16.30;12.57;;;;;;;;;;4996429;28;20535;-73
2022/03/01 06:33:39;;;;;;;16.58;12.75;;;;;;;;;;4987703;28;20035;-73
2022/03/01 06:36:05;;;;;;;17.60;12.18;;;;;;;;;;4993371;28;20034;-73
2022/03/01 06:38:31;;;;;;;20.92;13.38;;;;;;;;;;4995894;28;20040;-74
2022/03/01 06:40:57;;;;;;;20.98;13.82;;;;;;;;;;4997337;28;20038;-73
2022/03/01 06:43:24;;;;;;;17.27;12.60;;;;;;;;;;4978993;28;20030;-74
2022/03/01 06:45:50;;;;;;;19.98;12.82;;;;;;;;;;4996251;28;20046;-73
2022/03/01 06:48:16;;;;;;;19.75;13.55;;;;;;;;;;4995674;28;20053;-73
2022/03/01 06:50:42;;;;;;;21.02;12.82;;;;;;;;;;4977998;28;20042;-73
2022/03/01 06:53:08;;;;;;;18.52;12.82;;;;;;;;;;5017828;23;20042;-72
2022/03/01 06:55:35;;;;;;;22.45;13.93;;;;;;;;;;4965232;28;20035;-72
2022/03/01 06:58:01;;;;;;;20.10;13.52;;;;;;;;;;4953617;28;20051;-72
2022/03/01 07:00:27;;;;;;;18.88;14.15;;;;;;;;;;4961775;28;20483;-72
2022/03/01 07:02:53;;;;;;;18.35;13.20;;;;;;;;;;4969903;28;20046;-72
2022/03/01 07:05:19;;;;;;;17.90;12.75;;;;;;;;;;4969856;28;20097;-72
2022/03/01 07:07:46;;;;;;;20.73;13.55;;;;;;;;;;4984511;28;20177;-72
2022/03/01 07:10:13;;;;;;;19.95;12.57;;;;;;;;;;4967859;28;20050;-72
2022/03/01 07:12:40;;;;;;;22.30;13.95;;;;;;;;;;4964977;28;20142;-72
2022/03/01 07:15:06;;;;;;;17.90;12.70;;;;;;;;;;4967073;28;20100;-72
2022/03/01 07:17:33;;;;;;;17.90;13.40;;;;;;;;;;4964789;28;20034;-72
2022/03/01 07:19:59;;;;;;;20.92;13.80;;;;;;;;;;4952223;28;20175;-72
2022/03/01 07:22:25;;;;;;;22.35;13.68;;;;;;;;;;4980126;28;20054;-72
2022/03/01 07:24:51;;;;;;;20.40;13.43;;;;;;;;;;4975956;28;20038;-72
2022/03/01 07:27:17;;;;;;;21.38;13.95;;;;;;;;;;4964908;28;20177;-72
2022/03/01 07:29:43;;;;;;;19.48;14.27;;;;;;;;;;4966408;28;20049;-72
2022/03/01 07:32:10;;;;;;;18.08;13.07;;;;;;;;;;4949753;28;20042;-72
2022/03/01 07:34:36;;;;;;;20.48;14.07;;;;;;;;;;4963283;28;20080;-72
2022/03/01 07:37:04;;;;;;;21.08;13.95;;;;;;;;;;4973920;28;20458;-71
2022/03/01 07:39:30;;;;;;;21.00;15.10;;;;;;;;;;4957646;28;20129;-72
2022/03/01 07:41:56;;;;;;;26.80;14.98;;;;;;;;;;4958442;28;20053;-72
2022/03/01 07:44:22;;;;;;;22.75;13.98;;;;;;;;;;4956941;28;20094;-73
2022/03/01 07:46:49;;;;;;;20.25;14.23;;;;;;;;;;4974920;28;20045;-72
2022/03/01 07:49:15;;;;;;;19.88;14.45;;;;;;;;;;4942032;28;20047;-72
2022/03/01 07:51:42;;;;;;;22.08;15.10;;;;;;;;;;4959290;28;20069;-72
2022/03/01 07:54:08;;;;;;;22.48;14.57;;;;;;;;;;4969905;28;20046;-71
2022/03/01 07:56:34;;;;;;;23.05;14.15;;;;;;;;;;4956874;28;20038;-70
2022/03/01 07:59:00;;;;;;;17.25;13.52;;;;;;;;;;4959592;28;20096;-71
2022/03/01 08:01:26;;;;;;;18.95;14.07;;;;;;;;;;4941610;28;20042;-71
2022/03/01 08:03:52;;;;;;;21.40;14.13;;;;;;;;;;4973134;28;20034;-71
2022/03/01 08:06:18;;;;;;;22.13;14.63;;;;;;;;;;4958352;28;20040;-71
2022/03/01 08:08:45;;;;;;;19.25;14.80;;;;;;;;;;4968681;28;20054;-71
2022/03/01 08:11:11;;;;;;;24.70;13.98;;;;;;;;;;4963192;28;20046;-74
2022/03/01 08:13:37;;;;;;;22.10;14.43;;;;;;;;;;4985672;28;20039;-74
2022/03/01 08:16:04;;;;;;;23.05;14.60;;;;;;;;;;4960845;28;20048;-71
2022/03/01 08:18:30;;;;;;;20.13;14.85;;;;;;;;;;4994094;28;20448;-72
2022/03/01 08:20:57;;;;;;;22.08;14.10;;;;;;;;;;4974211;28;20046;-72
2022/03/01 08:23:24;;;;;;;17.42;13.80;;;;;;;;;;4974675;28;20578;-72
2022/03/01 08:25:50;;;;;;;18.30;13.88;;;;;;;;;;4958198;28;20038;-71
2022/03/01 08:28:17;;;;;;;19.35;14.82;;;;;;;;;;4948453;28;20189;-72
2022/03/01 08:30:43;;;;;;;18.15;14.13;;;;;;;;;;4964932;28;20457;-72
2022/03/01 08:33:09;;;;;;;21.67;15.18;;;;;;;;;;4965737;28;20045;-72
2022/03/01 08:35:36;;;;;;;22.92;15.30;;;;;;;;;;4967582;28;20038;-72
2022/03/01 08:38:05;;;;;;;22.90;14.90;;;;;;;;;;4966707;28;20163;-72
2022/03/01 08:40:33;;;;;;;21.33;14.55;;;;;;;;;;4966178;28;20667;-72
2022/03/01 08:42:59;;;;;;;19.48;13.38;;;;;;;;;;4967155;28;20050;-72
2022/03/01 08:45:26;;;;;;;20.23;14.95;;;;;;;;;;4982644;28;20042;-73
2022/03/01 08:47:52;;;;;;;20.20;14.55;;;;;;;;;;4966992;28;20401;-71
2022/03/01 08:50:18;;;;;;;18.95;14.45;;;;;;;;;;4965739;28;20476;-73
2022/03/01 08:52:44;;;;;;;20.35;14.52;;;;;;;;;;4963592;28;20039;-73
2022/03/01 08:55:12;;;;;;;24.08;14.88;;;;;;;;;;4964918;28;20092;-73
2022/03/01 08:57:38;;;;;;;18.58;14.45;;;;;;;;;;4967718;28;20084;-72
2022/03/01 09:00:06;;;;;;;19.38;14.82;;;;;;;;;;4965231;28;20050;-73
2022/03/01 09:02:32;;;;;;;20.25;13.73;;;;;;;;;;4966215;28;20042;-73
2022/03/01 09:04:58;;;;;;;21.25;14.90;;;;;;;;;;4953022;28;20057;-72
2022/03/01 09:07:25;;;;;;;19.45;14.10;;;;;;;;;;4966717;28;20116;-73
2022/03/01 09:09:51;;;;;;;22.00;14.98;;;;;;;;;;4968007;28;20050;-73
2022/03/01 09:12:17;;;;;;;19.30;13.95;;;;;;;;;;4966346;28;20057;-71
2022/03/01 09:14:43;;;;;;;22.20;14.27;;;;;;;;;;4964202;28;20206;-73
2022/03/01 09:17:09;;;;;;;18.98;13.73;;;;;;;;;;4961699;28;20066;-73
2022/03/01 09:19:35;;;;;;;19.92;15.25;;;;;;;;;;4962969;28;20056;-73
2022/03/01 09:22:02;;;;;;;23.70;15.45;;;;;;;;;;4965804;28;20173;-72
2022/03/01 09:24:28;;;;;;;21.25;14.13;;;;;;;;;;4966325;28;20481;-73
2022/03/01 09:26:55;;;;;;;19.77;14.25;;;;;;;;;;4967627;28;20054;-72
2022/03/01 09:29:21;;;;;;;23.77;14.93;;;;;;;;;;4978339;28;20049;-73
2022/03/01 09:31:47;;;;;;;18.67;13.27;;;;;;;;;;4967827;28;20051;-73
2022/03/01 09:34:13;;;;;;;18.38;13.75;;;;;;;;;;4950704;28;20038;-73
2022/03/01 09:36:39;;;;;;;20.63;14.35;;;;;;;;;;4966496;28;20101;-72
2022/03/01 09:39:06;;;;;;;18.83;13.85;;;;;;;;;;4962087;28;20068;-73
2022/03/01 09:41:33;;;;;;;20.08;14.27;;;;;;;;;;4983766;28;20173;-73
2022/03/01 09:43:59;;;;;;;19.98;13.77;;;;;;;;;;4968735;28;20088;-72
2022/03/01 09:46:25;;;;;;;21.20;14.10;;;;;;;;;;4966494;28;20429;-72
2022/03/01 09:48:51;;;;;;;23.38;14.15;;;;;;;;;;4963688;28;20074;-73
2022/03/01 09:51:19;;;;;;;22.83;14.55;;;;;;;;;;4969802;28;20120;-73
2022/03/01 09:53:47;;;;;;;18.23;13.40;;;;;;;;;;4975046;28;20034;-73
2022/03/01 09:56:14;;;;;;;21.48;14.73;;;;;;;;;;4973096;28;20038;-72
2022/03/01 09:58:40;;;;;;;19.13;14.10;;;;;;;;;;4974927;28;20074;-72
2022/03/01 10:01:06;;;;;;;22.10;13.98;;;;;;;;;;4994729;28;20049;-73
2022/03/01 10:03:35;;;;;;;20.52;14.52;;;;;;;;;;4973300;28;20147;-72
2022/03/01 10:06:12;;;;;;;20.58;14.80;;;;;;;;;;4977469;28;20049;-73
2022/03/01 10:08:38;;;;;;;19.15;14.43;;;;;;;;;;4994314;28;20042;-72
2022/03/01 10:11:05;;;;;;;18.77;14.13;;;;;;;;;;4977516;28;20105;-73
2022/03/01 10:13:32;;;;;;;17.85;13.52;;;;;;;;;;4959326;28;20136;-73
2022/03/01 10:16:05;;;;;;;17.25;13.93;;;;;;;;;;4978318;28;20046;-73
2022/03/01 10:18:32;;;;;;;21.25;14.63;;;;;;;;;;4977982;28;20046;-73
2022/03/01 10:21:11;;;;;;;20.52;14.75;;;;;;;;;;4972454;28;20077;-73
2022/03/01 10:23:38;;;;;;;19.15;13.90;;;;;;;;;;4974417;28;20046;-72
2022/03/01 10:26:18;;;;;;;17.35;13.43;;;;;;;;;;4977828;28;20129;-72
2022/03/01 10:28:45;;;;;;;19.73;14.02;;;;;;;;;;4977347;28;20054;-73
2022/03/01 10:31:15;;;;;;;20.02;14.18;;;;;;;;;;4977365;28;20290;-73
2022/03/01 10:34:01;;;;;;;25.65;14.73;;;;;;;;;;4977262;28;20046;-73
2022/03/01 10:36:28;;;;;;;20.42;13.27;;;;;;;;;;4967618;28;20058;-73
2022/03/01 10:38:59;;;;;;;20.55;14.13;;;;;;;;;;4972328;28;20035;-73
2022/03/01 10:41:30;;;;;;;19.75;13.75;;;;;;;;;;4968767;28;20038;-73
2022/03/01 10:43:59;;;;;;;20.80;14.40;;;;;;;;;;4971320;28;20492;-73
2022/03/01 10:46:29;;;;;;;19.75;15.00;;;;;;;;;;4974689;28;20042;-73
2022/03/01 10:49:05;;;;;;;20.25;14.60;;;;;;;;;;4965920;28;20511;-73
2022/03/01 10:51:31;;;;;;;18.20;13.05;;;;;;;;;;4975694;28;20038;-73
2022/03/01 10:53:59;;;;;;;19.52;14.30;;;;;;;;;;4962115;28;20113;-72
2022/03/01 10:56:33;;;;;;;20.05;14.35;;;;;;;;;;4979911;28;20072;-71
2022/03/01 10:59:00;;;;;;;22.17;14.80;;;;;;;;;;4964235;28;20420;-74
2022/03/01 11:01:27;;;;;;;19.67;14.30;;;;;;;;;;4958449;28;20405;-71
2022/03/01 11:03:53;;;;;;;18.00;14.00;;;;;;;;;;4956733;28;20046;-71
2022/03/01 11:06:19;;;;;;;17.23;13.95;;;;;;;;;;4947883;28;20445;-71
2022/03/01 11:08:46;;;;;;;19.42;14.57;;;;;;;;;;4962143;28;20511;-73
2022/03/01 11:11:12;;;;;;;18.80;14.05;;;;;;;;;;4973819;28;20042;-73
2022/03/01 11:13:44;;;;;;;21.02;14.75;;;;;;;;;;4976744;28;20038;-73
2022/03/01 11:16:25;;;;;;;18.27;13.63;;;;;;;;;;4977131;28;20121;-73
2022/03/01 11:19:10;;;;;;;19.33;13.75;;;;;;;;;;4965198;28;20053;-73
2022/03/01 11:21:37;;;;;;;18.17;13.77;;;;;;;;;;4960192;28;20039;-73
2022/03/01 11:24:04;;;;;;;17.30;13.93;;;;;;;;;;4976617;28;20441;-73
2022/03/01 11:26:39;;;;;;;16.77;13.27;;;;;;;;;;4993752;28;20539;-73
2022/03/01 11:29:10;;;;;;;21.83;14.15;;;;;;;;;;4966813;28;20053;-73
2022/03/01 11:31:37;;;;;;;18.70;14.38;;;;;;;;;;4974959;28;20467;-73
2022/03/01 11:34:07;;;;;;;18.63;14.52;;;;;;;;;;4976582;28;20053;-73
2022/03/01 11:36:34;;;;;;;20.50;14.15;;;;;;;;;;4975663;28;20077;-73
2022/03/01 11:39:17;;;;;;;19.17;13.52;;;;;;;;;;4994804;28;20101;-71
2022/03/01 11:41:43;;;;;;;;;;;;;;;;;;4963018;28;20042;-71
2022/03/01 11:44:09;;;;;;;18.80;14.27;;;;;;;;;;4939965;28;20008;-72
2022/03/01 11:46:40;;;;;;;17.67;13.80;;;;;;;;;;4957296;28;20044;-72
2022/03/01 11:49:06;;;;;;;17.17;13.43;;;;;;;;;;4956004;28;20038;-72
2022/03/01 11:51:34;;;;;;;17.58;14.20;;;;;;;;;;4993307;28;20038;-73
2022/03/01 11:54:02;;;;;;;17.35;13.60;;;;;;;;;;4975889;28;20168;-73
2022/03/01 11:56:28;;;;;;;17.05;13.82;;;;;;;;;;4976272;28;20042;-73
2022/03/01 11:58:54;;;;;;;21.50;14.13;;;;;;;;;;4975951;28;20077;-73
2022/03/01 12:01:23;;;;;;;20.02;14.02;;;;;;;;;;4975680;28;20081;-73
2022/03/01 12:03:52;;;;;;;17.05;13.65;;;;;;;;;;4966894;28;20073;-72
2022/03/01 12:06:21;;;;;;;17.90;14.25;;;;;;;;;;4976280;28;20532;-72
2022/03/01 12:08:55;;;;;;;19.50;13.93;;;;;;;;;;4943399;28;20493;-72
2022/03/01 12:11:31;;;;;;;18.02;14.02;;;;;;;;;;4967349;28;20038;-73
2022/03/01 12:14:01;;;;;;;18.60;14.20;;;;;;;;;;4975684;28;20650;-74
2022/03/01 12:16:28;;;;;;;19.80;13.68;;;;;;;;;;4962608;28;20489;-74
2022/03/01 12:19:04;;;;;;;17.02;14.07;;;;;;;;;;4975396;28;20117;-73
2022/03/01 12:21:30;;;;;;;17.33;13.85;;;;;;;;;;4969834;28;20484;-74
2022/03/01 12:23:56;;;;;;;20.25;14.30;;;;;;;;;;4974849;28;20546;-73
2022/03/01 12:26:23;;;;;;;18.92;13.77;;;;;;;;;;4962395;28;20046;-73
2022/03/01 12:28:51;;;;;;;16.35;13.82;;;;;;;;;;4974829;28;20484;-73
2022/03/01 12:31:20;;;;;;;16.83;13.88;;;;;;;;;;4975739;28;20519;-71
2022/03/01 12:33:50;;;;;;;18.00;14.18;;;;;;;;;;4947349;28;20448;-72
2022/03/01 12:36:25;;;;;;;16.95;13.25;;;;;;;;;;4932529;28;20130;-74
2022/03/01 12:38:52;;;;;;;16.92;13.32;;;;;;;;;;4960005;28;20046;-72
2022/03/01 12:41:21;;;;;;;17.23;14.40;;;;;;;;;;4945892;28;20132;-73
2022/03/01 12:43:52;;;;;;;19.13;14.38;;;;;;;;;;4941657;28;20055;-73
2022/03/01 12:46:18;;;;;;;16.98;13.32;;;;;;;;;;4972493;28;20042;-73
2022/03/01 12:48:45;;;;;;;17.80;13.68;;;;;;;;;;4971211;28;20593;-73
2022/03/01 12:51:11;;;;;;;17.38;13.73;;;;;;;;;;4974637;28;20404;-73
2022/03/01 12:53:37;;;;;;;18.27;13.27;;;;;;;;;;5016642;23;20411;-75
2022/03/01 12:56:04;;;;;;;17.70;13.52;;;;;;;;;;4990880;28;20040;-75
2022/03/01 12:58:30;;;;;;;17.67;13.43;;;;;;;;;;4984954;28;20037;-75
2022/03/01 13:01:07;;;;;;;17.85;13.45;;;;;;;;;;4994141;28;20042;-75
2022/03/01 13:03:33;;;;;;;17.92;13.00;;;;;;;;;;4995348;28;20046;-75
2022/03/01 13:06:03;;;;;;;15.38;13.18;;;;;;;;;;4996193;28;20042;-75
2022/03/01 13:08:31;;;;;;;18.13;13.98;;;;;;;;;;4988957;28;20137;-75
2022/03/01 13:10:57;;;;;;;17.50;13.15;;;;;;;;;;4985674;28;20136;-75
2022/03/01 13:13:23;;;;;;;15.95;13.82;;;;;;;;;;4991899;28;20124;-75
2022/03/01 13:15:49;;;;;;;19.95;14.25;;;;;;;;;;4994216;28;20121;-76
2022/03/01 13:18:24;;;;;;;16.45;13.05;;;;;;;;;;4994092;28;20042;-75
2022/03/01 13:20:50;;;;;;;18.42;14.10;;;;;;;;;;4993852;28;20049;-75
2022/03/01 13:23:19;;;;;;;18.90;14.15;;;;;;;;;;4975738;28;20034;-75
2022/03/01 13:25:46;;;;;;;18.10;14.10;;;;;;;;;;4993788;28;20048;-75
2022/03/01 13:28:12;;;;;;;16.73;13.27;;;;;;;;;;4977010;28;20510;-75
2022/03/01 13:30:40;;;;;;;17.20;13.45;;;;;;;;;;4992087;28;20133;-75
2022/03/01 13:33:11;;;;;;;20.67;14.13;;;;;;;;;;4993834;28;20049;-75
2022/03/01 13:35:38;;;;;;;15.20;13.05;;;;;;;;;;4994007;28;20034;-75
2022/03/01 13:38:06;;;;;;;16.35;13.85;;;;;;;;;;4993866;28;20555;-75
2022/03/01 13:40:32;;;;;;;15.50;13.07;;;;;;;;;;4993231;28;20073;-75
2022/03/01 13:43:05;;;;;;;19.23;13.88;;;;;;;;;;5000394;28;20095;-76
2022/03/01 13:45:32;;;;;;;19.65;14.50;;;;;;;;;;4973406;28;20046;-75
2022/03/01 13:48:07;;;;;;;18.38;14.45;;;;;;;;;;5003403;28;20045;-75
2022/03/01 13:50:33;;;;;;;18.40;14.43;;;;;;;;;;4993924;28;20065;-75
2022/03/01 13:53:07;;;;;;;19.73;14.45;;;;;;;;;;4993903;28;20107;-75
2022/03/01 13:55:36;;;;;;;19.10;14.20;;;;;;;;;;4993736;28;20040;-75
2022/03/01 13:58:03;;;;;;;18.83;13.95;;;;;;;;;;4993502;28;20061;-75
2022/03/01 14:00:38;;;;;;;17.55;14.50;;;;;;;;;;4993188;28;20044;-75
2022/03/01 14:03:08;;;;;;;16.92;13.70;;;;;;;;;;4989164;28;20049;-75
2022/03/01 14:05:35;;;;;;;19.95;13.88;;;;;;;;;;4993699;28;20046;-75
2022/03/01 14:08:01;;;;;;;20.60;14.52;;;;;;;;;;4993160;28;20165;-75
2022/03/01 14:10:29;;;;;;;17.80;14.02;;;;;;;;;;4986720;28;20042;-75
2022/03/01 14:13:06;;;;;;;20.25;15.02;;;;;;;;;;4996696;28;20121;-75
2022/03/01 14:15:37;;;;;;;16.95;14.15;;;;;;;;;;4985995;28;20049;-75
2022/03/01 14:18:03;;;;;;;15.82;13.68;;;;;;;;;;4992469;28;20066;-76